Česky Dansk Deutsch English Español Suomi Français Magyar Italiano Nederlands norsk Polski Português svenska Türkçe

 

Het Weer

Kogalniceanu (Roemenië)

13:30, 23 augustus 2016 (GMT)

NWNNE
WE
SWSSE
Home            
Kogalniceanu Tulcea Varna Kaxul - The South of Moldova Bucuresti / Imh Bucuresti Otopeni Rousse Burgas Gorna Orechovista Bacau Chisinau International Airport Odesa Kisinev Iasi Corlu Craiova Sibiu Istanbul / Ataturk Plovdiv Istanbul / Sabiha Gokcen Tirgu Mures Baltsi-Leadoveni - The North of Moldova Suceava / Salcea

Om een weerknop op uw website of weblog te plaatsen, copieer onderstaande code en plak die in uw pagina. In het eerste vakje staat HTML-code, in het tweede vakje UBB-code.


Add to Google

Details

Wind speed:5 bf, 16 kn, 8.2 m/s, 18.4 miles/h, 29.6 km/h
Wind direction:NW, 310°
Visibility:Greater than 10000 m, 10 km, 32800 ft, 6.2 miles
Clouds:CAVOC
Temperature:30°C, 86°F
Gefühlte Temperatur:31°C, 87°F
Dew-point:18°C, 64°F
Atmospheric pressure:1012 hPa, 759.1 mmHg, 29.88 inHg, 0.999 atm
Relative humidity:48.6 %
METAR:LRCK 231330Z 31016KT CAVOK 30/18 Q1012 NOSIG

Snelkoppelingen

Actuele weersinformatie van de hele wereld. Voeg locaties toe met het plus (+) symbool. Deze snelkoppelingen kunnen worden toegevoegd aan Google.

Lid van de Technetium groep

website free tracking
StatCounter NetStat W3C Validator

02-10-2022 10:01:34
astro.technetium.be money.technetium.be phote.technetium.be tafeltennistafel.technetium.be www.ligfiets.net